Time;durP1;ratioP1;P1;durP2;ratioP2;P2;SDS_P1;SDS_P2;PMS_P1;PMS_P2;Temp;Humidity;BMP_temperature;BMP_pressure;BME280_temperature;BME280_humidity;BME280_pressure;Samples;Min_cycle;Max_cycle;Signal;HPM_P1;HPM_P2
2022/10/24 00:01:49;;;;;;;33.87;15.70;;;;;;;12.41;100.00;100450.48;5237788;56;1145302;-71
2022/10/24 00:06:55;;;;;;;34.80;15.43;;;;;;;12.34;100.00;100437.41;5237371;56;1145317;-65
2022/10/24 00:12:01;;;;;;;27.50;13.70;;;;;;;12.33;100.00;100436.56;5234880;56;1145575;-66
2022/10/24 00:17:07;;;;;;;24.53;14.97;;;;;;;12.32;100.00;100438.02;5238017;56;1145512;-69
2022/10/24 00:22:13;;;;;;;26.00;14.60;;;;;;;12.27;100.00;100447.69;5237948;56;1145335;-69
2022/10/24 00:27:20;;;;;;;26.57;16.60;;;;;;;12.30;100.00;100446.59;5238369;56;1145243;-68
2022/10/24 00:32:26;;;;;;;24.77;14.60;;;;;;;12.30;100.00;100432.00;5238283;56;1145554;-67
2022/10/24 00:37:32;;;;;;;27.73;13.30;;;;;;;12.32;100.00;100429.58;5211184;56;1144600;-71
2022/10/24 00:42:37;;;;;;;23.03;12.20;;;;;;;12.33;100.00;100422.47;5151962;56;1145336;-66
2022/10/24 00:47:43;;;;;;;23.03;12.30;;;;;;;12.36;100.00;100420.04;5152252;56;1145210;-67
2022/10/24 00:52:50;;;;;;;22.20;14.10;;;;;;;12.39;100.00;100421.92;5170957;55;1145541;-67
2022/10/24 00:58:00;;;;;;;25.33;13.90;;;;;;;12.43;100.00;100415.38;5232244;55;1145147;-65
2022/10/24 01:03:06;;;;;;;22.50;11.93;;;;;;;12.41;100.00;100422.63;5284307;55;1145232;-64
2022/10/24 01:08:28;;;;;;;19.90;11.57;;;;;;;12.41;100.00;100416.48;5214457;56;1145257;-67
2022/10/24 01:14:17;;;;;;;16.50;10.20;;;;;;;12.41;100.00;100421.79;5159949;57;1145263;-68
2022/10/24 01:19:43;;;;;;;17.43;11.30;;;;;;;12.45;100.00;100419.23;5164332;57;1145373;-67
2022/10/24 01:25:23;;;;;;;25.37;9.87;;;;;;;12.46;100.00;100405.84;5163802;57;1143471;-68
2022/10/24 01:30:33;;;;;;;16.90;9.83;;;;;;;12.46;100.00;100374.49;5073296;58;1141144;-68
2022/10/24 01:36:01;;;;;;;15.53;9.20;;;;;;;12.44;100.00;100381.25;5137624;56;1141371;-64
2022/10/24 01:41:11;;;;;;;15.80;9.67;;;;;;;12.48;100.00;100362.78;5252469;56;1139388;-69
2022/10/24 01:46:21;;;;;;;21.07;10.17;;;;;;;12.49;100.00;100364.46;5252101;56;1143057;-71
2022/10/24 01:51:30;;;;;;;14.13;8.47;;;;;;;12.48;100.00;100363.27;5247168;55;1145112;-69
2022/10/24 01:56:36;;;;;;;14.60;8.53;;;;;;;12.48;100.00;100359.28;5257355;55;1143163;-65
2022/10/24 02:01:41;;;;;;;18.47;9.80;;;;;;;12.47;100.00;100347.00;5260249;55;1143116;-67
2022/10/24 02:06:49;;;;;;;18.17;9.70;;;;;;;12.45;100.00;100337.84;5164301;56;1143193;-68
2022/10/24 02:11:57;;;;;;;16.30;9.57;;;;;;;12.47;100.00;100327.09;5125241;57;1143153;-66
2022/10/24 02:17:04;;;;;;;19.93;9.80;;;;;;;12.50;100.00;100322.86;5164365;56;1143109;-68
2022/10/24 02:22:20;;;;;;;13.47;9.83;;;;;;;12.52;100.00;100329.70;5164398;56;1143064;-67
2022/10/24 02:27:33;;;;;;;16.30;9.97;;;;;;;12.52;100.00;100315.61;5078199;57;1143265;-68
2022/10/24 02:32:43;;;;;;;18.07;8.67;;;;;;;12.51;100.00;100313.44;5049924;57;1143178;-68
2022/10/24 02:37:54;;;;;;;16.43;9.27;;;;;;;12.51;100.00;100317.42;5202113;55;1143259;-65
2022/10/24 02:43:01;;;;;;;25.63;10.00;;;;;;;12.55;100.00;100333.88;5251055;56;1143172;-70
2022/10/24 02:48:11;;;;;;;21.70;10.13;;;;;;;12.61;100.00;100331.53;5167244;56;1145221;-71
2022/10/24 02:53:21;;;;;;;19.63;9.17;;;;;;;12.64;100.00;100335.25;5204031;56;1144953;-67
2022/10/24 02:58:27;;;;;;;13.32;8.08;;;;;;;12.63;100.00;100327.42;5256190;55;1143367;-69
2022/10/24 03:03:33;;;;;;;23.80;9.20;;;;;;;12.64;100.00;100323.80;5292262;55;1143398;-64
2022/10/24 03:08:39;;;;;;;16.53;10.77;;;;;;;12.64;100.00;100314.50;5252027;56;1143235;-69
2022/10/24 03:13:45;;;;;;;25.43;11.07;;;;;;;12.63;100.00;100287.63;5252062;55;1145418;-70
2022/10/24 03:18:51;;;;;;;19.77;10.00;;;;;;;12.56;100.00;100259.46;5289887;55;1145543;-65
2022/10/24 03:23:57;;;;;;;22.77;10.50;;;;;;;12.52;100.00;100256.76;5332293;55;1145234;-69
2022/10/24 03:29:03;;;;;;;17.63;9.70;;;;;;;12.51;100.00;100273.65;5332077;55;1145224;-68
2022/10/24 03:34:10;;;;;;;20.57;10.30;;;;;;;12.57;100.00;100266.45;5332018;55;1143242;-69
2022/10/24 03:39:15;;;;;;;18.03;9.60;;;;;;;12.59;100.00;100261.00;5225403;55;1145169;-67
2022/10/24 03:44:21;;;;;;;12.83;8.03;;;;;;;12.58;100.00;100273.43;5202481;56;1143170;-65
2022/10/24 03:49:27;;;;;;;12.60;8.17;;;;;;;12.54;100.00;100295.05;5232199;56;1143146;-68
2022/10/24 03:54:34;;;;;;;11.43;8.10;;;;;;;12.48;100.00;100295.14;5263711;55;1143210;-67
2022/10/24 03:59:40;;;;;;;14.57;9.00;;;;;;;12.46;100.00;100291.78;5268348;55;1143303;-71
2022/10/24 04:04:45;;;;;;;16.37;8.97;;;;;;;12.43;100.00;100289.39;5285621;55;1142596;-69
2022/10/24 04:09:51;;;;;;;16.63;9.07;;;;;;;12.38;100.00;100290.28;5247807;55;1143117;-70
2022/10/24 04:14:57;;;;;;;20.10;9.90;;;;;;;12.39;100.00;100287.14;5241317;56;1143128;-67
2022/10/24 04:20:03;;;;;;;10.30;8.03;;;;;;;12.44;100.00;100270.34;5241165;56;1141152;-68
2022/10/24 04:25:09;;;;;;;18.90;8.60;;;;;;;12.46;100.00;100277.19;5261239;55;1141258;-65
2022/10/24 04:30:16;;;;;;;13.43;7.63;;;;;;;12.43;100.00;100288.06;5275865;55;1141145;-66
2022/10/24 04:35:21;;;;;;;22.23;8.93;;;;;;;12.43;100.00;100276.13;5304481;55;1141359;-70
2022/10/24 04:40:27;;;;;;;9.73;7.50;;;;;;;12.46;100.00;100277.19;5142171;57;1141203;-70
2022/10/24 04:45:33;;;;;;;18.20;9.13;;;;;;;12.47;100.00;100296.11;5330734;55;1139018;-69
2022/10/24 04:50:41;;;;;;;13.27;8.83;;;;;;;12.45;100.00;100286.61;5188708;55;1141307;-65
2022/10/24 04:55:49;;;;;;;16.43;9.23;;;;;;;12.45;100.00;100286.12;5193171;56;1140983;-67
2022/10/24 05:00:54;;;;;;;17.77;8.80;;;;;;;12.51;100.00;100290.05;5166344;56;1141168;-67
2022/10/24 05:06:00;;;;;;;15.77;9.37;;;;;;;12.50;100.00;100297.17;5160060;57;1141333;-66
2022/10/24 05:11:05;;;;;;;14.27;7.30;;;;;;;12.45;100.00;100299.88;5184899;56;1141078;-65
2022/10/24 05:16:11;;;;;;;18.50;7.30;;;;;;;12.42;100.00;100302.78;5243052;56;1141073;-70
2022/10/24 05:21:17;;;;;;;13.13;7.60;;;;;;;12.36;100.00;100308.66;5316083;55;1141088;-71
2022/10/24 05:26:23;;;;;;;11.20;7.90;;;;;;;12.33;100.00;100312.41;5331436;55;1141128;-67
2022/10/24 05:31:29;;;;;;;16.13;7.53;;;;;;;12.33;100.00;100307.95;5285592;55;1141046;-69
2022/10/24 05:36:35;;;;;;;13.58;6.97;;;;;;;12.37;100.00;100309.84;5161348;56;1141085;-69
2022/10/24 05:41:41;;;;;;;21.20;7.00;;;;;;;12.38;100.00;100309.33;5255241;55;1141043;-68
2022/10/24 05:46:47;;;;;;;13.20;7.33;;;;;;;12.39;100.00;100314.50;5190559;56;1141081;-70
2022/10/24 05:51:53;;;;;;;11.37;6.73;;;;;;;12.42;100.00;100314.72;5159791;57;1139019;-68
2022/10/24 05:56:59;;;;;;;11.27;8.13;;;;;;;12.40;100.00;100306.06;5122677;57;1139148;-67
2022/10/24 06:02:04;;;;;;;10.30;7.33;;;;;;;12.42;100.00;100308.94;5232078;56;1143340;-68
2022/10/24 06:07:10;;;;;;;10.00;7.50;;;;;;;12.45;100.00;100312.64;5248636;56;1143087;-66
2022/10/24 06:12:17;;;;;;;12.07;7.73;;;;;;;12.46;100.00;100308.18;5154251;57;1143141;-65
2022/10/24 06:17:22;;;;;;;14.70;7.20;;;;;;;12.49;100.00;100310.56;5222785;56;1143095;-67
2022/10/24 06:22:28;;;;;;;9.10;6.10;;;;;;;12.48;100.00;100312.38;5250264;56;1143233;-69
2022/10/24 06:27:34;;;;;;;10.93;7.17;;;;;;;12.54;100.00;100317.61;5210287;56;1141069;-69
2022/10/24 06:32:40;;;;;;;9.97;7.47;;;;;;;12.59;100.00;100323.35;5163396;56;1143179;-69
2022/10/24 06:37:46;;;;;;;13.30;8.33;;;;;;;12.66;100.00;100320.52;5200726;56;1141058;-68
2022/10/24 06:42:52;;;;;;;12.77;7.57;;;;;;;12.80;100.00;100321.93;5158482;57;1143168;-65
2022/10/24 06:47:58;;;;;;;16.83;8.30;;;;;;;12.89;100.00;100331.22;5254680;55;1143066;-71
2022/10/24 06:53:04;;;;;;;15.07;7.37;;;;;;;12.93;100.00;100327.32;5240226;56;1143138;-69
2022/10/24 06:58:10;;;;;;;151.53;93.97;;;;;;;12.97;100.00;100334.03;5208888;56;1143176;-67
2022/10/24 07:03:16;;;;;;;27.50;19.03;;;;;;;13.04;100.00;100335.14;5250571;56;1147300;-68
2022/10/24 07:08:22;;;;;;;12.77;8.53;;;;;;;13.09;100.00;100340.53;5175054;56;1145396;-65
2022/10/24 07:13:29;;;;;;;13.80;7.93;;;;;;;13.04;100.00;100335.63;5163715;56;1143131;-69
2022/10/24 07:18:35;;;;;;;15.83;8.77;;;;;;;13.03;100.00;100341.91;5163792;56;1143135;-68
2022/10/24 07:23:41;;;;;;;15.27;8.30;;;;;;;13.03;100.00;100337.45;5250528;56;1143110;-65
2022/10/24 07:28:52;;;;;;;15.97;7.50;;;;;;;13.18;100.00;100325.95;5250258;56;1143056;-64
2022/10/24 07:33:59;;;;;;;13.90;7.80;;;;;;;13.29;100.00;100315.17;5250506;56;1143214;-67
2022/10/24 07:39:04;;;;;;;14.60;7.13;;;;;;;13.34;100.00;100312.09;5199777;55;1143378;-66
2022/10/24 07:44:11;;;;;;;13.90;7.30;;;;;;;13.34;100.00;100323.56;5220420;56;1143434;-63
2022/10/24 07:49:17;;;;;;;11.63;6.50;;;;;;;13.32;100.00;100334.81;5236204;56;1143136;-67
2022/10/24 07:54:24;;;;;;;13.30;7.10;;;;;;;13.34;100.00;100333.34;5227449;56;1143133;-69
2022/10/24 07:59:30;;;;;;;14.80;7.17;;;;;;;13.39;100.00;100321.81;5170336;56;1143140;-71
2022/10/24 08:04:36;;;;;;;11.00;6.13;;;;;;;13.41;100.00;100319.02;5248032;55;1143485;-66
2022/10/24 08:09:45;;;;;;;6.50;5.67;;;;;;;13.52;100.00;100312.22;5195005;56;1143388;-68
2022/10/24 08:14:52;;;;;;;10.50;6.20;;;;;;;13.62;100.00;100318.34;5264822;55;1141087;-67
2022/10/24 08:19:57;;;;;;;13.70;6.97;;;;;;;13.76;100.00;100315.22;5266652;56;1143183;-68
2022/10/24 08:25:07;;;;;;;14.43;6.43;;;;;;;13.88;100.00;100317.23;5237882;56;1143176;-67
2022/10/24 08:30:12;;;;;;;9.63;5.93;;;;;;;14.09;100.00;100319.17;5238230;56;1143216;-66
2022/10/24 08:35:20;;;;;;;11.80;6.70;;;;;;;14.21;100.00;100327.30;5233251;56;1141024;-70
2022/10/24 08:40:27;;;;;;;12.17;6.07;;;;;;;14.31;100.00;100309.98;5224664;56;1143143;-66
2022/10/24 08:45:44;;;;;;;14.80;6.47;;;;;;;14.39;100.00;100307.41;5147262;56;1143175;-66
2022/10/24 08:50:55;;;;;;;14.03;7.87;;;;;;;14.48;100.00;100297.25;5146660;56;1143100;-69
2022/10/24 08:56:04;;;;;;;16.47;10.63;;;;;;;14.65;100.00;100307.58;5191285;56;1141149;-70
2022/10/24 09:01:18;;;;;;;67.07;31.37;;;;;;;14.78;100.00;100320.86;5190304;56;1143156;-69
2022/10/24 09:06:28;;;;;;;21.13;12.90;;;;;;;14.78;100.00;100328.02;5229247;56;1143118;-67
2022/10/24 09:11:52;;;;;;;13.57;7.63;;;;;;;14.73;100.00;100320.47;5232756;56;1143047;-67
2022/10/24 09:17:02;;;;;;;;;;;;;;;14.73;100.00;100335.60;5239165;56;1141125;-68
2022/10/24 09:22:12;;;;;;;13.00;7.33;;;;;;;14.72;100.00;100324.11;5157363;56;976352;-66
2022/10/24 09:27:30;;;;;;;16.57;7.03;;;;;;;14.76;100.00;100334.81;5068348;58;1139160;-65
2022/10/24 09:32:37;;;;;;;12.73;6.33;;;;;;;14.81;100.00;100327.72;5091912;57;1138913;-68
2022/10/24 09:37:50;;;;;;;16.03;6.40;;;;;;;14.90;100.00;100330.80;5030356;58;1139004;-69
2022/10/24 09:42:59;;;;;;;11.73;6.07;;;;;;;14.98;100.00;100324.20;5066413;58;1143307;-70
2022/10/24 09:48:31;;;;;;;17.63;7.53;;;;;;;15.06;100.00;100312.30;5048869;58;1143195;-69
2022/10/24 09:53:44;;;;;;;8.70;5.60;;;;;;;15.16;100.00;100306.88;5013507;58;1143182;-71
2022/10/24 09:58:50;;;;;;;14.20;6.87;;;;;;;15.25;100.00;100315.30;5046252;57;1141106;-68
2022/10/24 10:04:05;;;;;;;18.83;6.40;;;;;;;15.35;100.00;100315.20;5100203;57;1143102;-70
2022/10/24 10:09:15;;;;;;;14.54;9.34;;;;;;;15.41;100.00;100317.27;5108231;57;1143347;-72
2022/10/24 10:14:24;;;;;;;10.70;6.27;;;;;;;15.54;100.00;100326.19;5214137;56;1143127;-65
2022/10/24 10:19:35;;;;;;;10.07;6.37;;;;;;;15.62;100.00;100320.43;5042438;57;1143160;-63
2022/10/24 10:24:44;;;;;;;9.20;5.83;;;;;;;15.75;100.00;100319.52;5088653;57;1143170;-67
2022/10/24 10:30:09;;;;;;;12.30;5.20;;;;;;;15.92;100.00;100317.78;5201944;56;1141050;-66
2022/10/24 10:35:19;;;;;;;13.27;6.70;;;;;;;16.12;100.00;100301.89;5143110;56;1143179;-69
2022/10/24 10:40:34;;;;;;;8.13;4.90;;;;;;;16.29;100.00;100321.48;5211803;56;1143172;-67
2022/10/24 10:45:52;;;;;;;11.53;5.70;;;;;;;16.41;100.00;100331.36;5131170;57;1141303;-75
2022/10/24 10:51:43;;;;;;;10.13;6.23;;;;;;;16.60;100.00;100322.26;5143543;56;1143168;-75
2022/10/24 10:57:02;;;;;;;16.47;7.47;;;;;;;16.75;100.00;100331.34;5142218;56;1141044;-75
2022/10/24 11:02:51;;;;;;;13.53;6.27;;;;;;;16.81;100.00;100330.17;5168530;56;1141325;-76
2022/10/24 11:08:14;;;;;;;16.23;5.53;;;;;;;16.85;100.00;100316.83;5155553;57;1139007;-76
2022/10/24 11:13:27;;;;;;;8.17;5.53;;;;;;;17.10;100.00;100303.02;5138778;57;1143147;-76
2022/10/24 11:18:38;;;;;;;15.87;6.20;;;;;;;17.37;100.00;100299.17;5103407;57;1141169;-76
2022/10/24 11:24:06;;;;;;;9.85;5.65;;;;;;;17.61;100.00;100312.16;5072312;58;1143284;-77
2022/10/24 11:29:36;;;;;;;10.18;6.05;;;;;;;17.85;100.00;100312.17;5147619;57;1141048;-77
2022/10/24 11:35:01;;;;;;;20.86;6.86;;;;;;;18.14;100.00;100299.53;5149263;57;1143144;-76
2022/10/24 11:40:22;;;;;;;11.55;5.55;;;;;;;18.36;100.00;100283.20;5155833;57;1143165;-76
2022/10/24 11:45:35;;;;;;;10.08;5.28;;;;;;;18.54;100.00;100287.80;5083558;57;1143168;-77
2022/10/24 11:51:11;;;;;;;11.08;5.37;;;;;;;18.70;100.00;100297.11;5080043;57;1143254;-76
2022/10/24 11:56:40;;;;;;;15.90;7.20;;;;;;;18.79;100.00;100293.35;5137237;57;1143240;-76
2022/10/24 12:02:31;;;;;;;18.67;7.03;;;;;;;18.75;100.00;100283.19;5100930;57;1141106;-76
2022/10/24 12:07:53;;;;;;;10.98;5.92;;;;;;;18.81;100.00;100275.77;5159824;56;1141294;-76
2022/10/24 12:13:09;;;;;;;13.48;5.82;;;;;;;18.95;100.00;100276.33;5159748;57;1141043;-75
2022/10/24 12:18:31;;;;;;;10.70;5.08;;;;;;;19.19;100.00;100270.78;5159909;57;1139301;-76
2022/10/24 12:23:38;;;;;;;13.00;5.97;;;;;;;19.35;100.00;100275.68;5177219;56;1143144;-76
2022/10/24 12:28:49;;;;;;;7.12;4.70;;;;;;;19.37;100.00;100270.47;5202577;56;1143116;-76
2022/10/24 12:34:21;;;;;;;22.53;4.73;;;;;;;19.49;100.00;100270.85;5150316;57;1141450;-77
2022/10/24 12:39:36;;;;;;;9.25;5.08;;;;;;;19.58;100.00;100271.95;5156680;56;1143194;-77
2022/10/24 12:44:45;;;;;;;11.50;5.05;;;;;;;19.75;100.00;100259.70;5154573;57;1140275;-76
2022/10/24 12:49:51;;;;;;;14.03;4.42;;;;;;;19.87;100.00;100252.34;5159706;57;1143188;-76
2022/10/24 12:54:57;;;;;;;9.95;5.25;;;;;;;19.85;100.00;100238.81;5179017;56;1143195;-76
2022/10/24 13:00:08;;;;;;;12.33;5.00;;;;;;;19.88;100.00;100237.91;5188770;56;1141076;-77
2022/10/24 13:05:35;;;;;;;11.33;4.83;;;;;;;19.99;100.00;100235.28;5187231;56;1143293;-77
2022/10/24 13:11:30;;;;;;;14.68;6.03;;;;;;;19.94;100.00;100232.31;5147369;57;1143435;-77
2022/10/24 13:16:57;;;;;;;11.53;5.08;;;;;;;19.79;100.00;100236.86;5127069;56;1143082;-77
2022/10/24 13:22:04;;;;;;;28.62;14.93;;;;;;;19.65;100.00;100225.11;5091830;57;1141116;-78
2022/10/24 13:27:14;;;;;;;30.12;17.10;;;;;;;19.62;100.00;100220.11;5140371;57;1143181;-77
2022/10/24 13:32:23;;;;;;;13.08;7.15;;;;;;;19.55;100.00;100216.52;5117541;57;1143307;-77
2022/10/24 13:37:49;;;;;;;9.03;5.78;;;;;;;19.40;100.00;100226.36;5199326;56;1141364;-77
2022/10/24 13:42:59;;;;;;;11.38;6.65;;;;;;;19.40;100.00;100226.36;5068517;57;1139271;-77
2022/10/24 13:48:21;;;;;;;12.45;4.42;;;;;;;19.35;100.00;100224.22;5088873;57;1141092;-78
2022/10/24 13:53:31;;;;;;;50.40;30.23;;;;;;;19.36;100.00;100225.05;5107750;57;1141109;-77
2022/10/24 13:58:43;;;;;;;88.15;49.55;;;;;;;19.31;100.00;100228.27;5071509;57;1141199;-76
2022/10/24 14:03:51;;;;;;;58.98;26.60;;;;;;;19.25;100.00;100223.13;5244906;56;1145330;-76
2022/10/24 14:09:05;;;;;;;21.60;12.87;;;;;;;19.16;100.00;100225.56;5246329;56;1145547;-76
2022/10/24 14:14:30;;;;;;;19.37;8.43;;;;;;;19.10;100.00;100231.64;5168966;56;1145147;-74
2022/10/24 14:19:39;;;;;;;23.50;9.45;;;;;;;19.07;100.00;100238.73;5147468;57;1143164;-75
2022/10/24 14:24:47;;;;;;;16.32;10.28;;;;;;;19.06;100.00;100244.27;5144295;57;1143185;-77
2022/10/24 14:30:00;;;;;;;25.35;16.30;;;;;;;19.01;100.00;100239.94;5171211;56;1145296;-77
2022/10/24 14:35:06;;;;;;;16.73;11.05;;;;;;;18.97;100.00;100240.30;5203366;56;1145222;-76
2022/10/24 14:40:19;;;;;;;31.15;13.48;;;;;;;18.95;100.00;100237.47;5168698;56;1145319;-76
2022/10/24 14:45:29;;;;;;;19.77;9.18;;;;;;;18.94;100.00;100229.93;5133313;56;1145199;-77
2022/10/24 14:50:39;;;;;;;17.92;9.40;;;;;;;18.90;100.00;100243.89;5117411;57;1143156;-77
2022/10/24 14:55:52;;;;;;;38.60;19.10;;;;;;;18.86;100.00;100236.70;5192145;56;1142980;-78
2022/10/24 15:00:59;;;;;;;92.80;61.25;;;;;;;18.80;100.00;100244.62;5163429;56;1145168;-77
2022/10/24 15:06:18;;;;;;;45.33;31.73;;;;;;;18.70;100.00;100241.35;5220223;56;1145267;-77
2022/10/24 15:11:23;;;;;;;12.45;7.05;;;;;;;18.60;100.00;100235.73;5157359;57;1145181;-77
2022/10/24 15:16:32;;;;;;;16.30;7.65;;;;;;;18.57;100.00;100239.23;5190083;56;1143716;-77
2022/10/24 15:21:42;;;;;;;18.57;6.53;;;;;;;18.53;100.00;100235.23;5120408;56;1143092;-77
2022/10/24 15:26:47;;;;;;;14.53;5.83;;;;;;;18.49;100.00;100236.09;5162421;56;1143181;-77
2022/10/24 15:31:53;;;;;;;17.55;10.23;;;;;;;18.43;100.00;100234.13;5167408;56;1143184;-77
2022/10/24 15:36:59;;;;;;;14.13;8.23;;;;;;;18.37;100.00;100232.15;5193687;56;1145152;-76
2022/10/24 15:42:05;;;;;;;23.32;10.93;;;;;;;18.34;100.00;100232.50;5229763;56;1143105;-75
2022/10/24 15:47:11;;;;;;;20.20;8.95;;;;;;;18.31;100.00;100236.89;5180835;56;1145206;-76
2022/10/24 15:52:18;;;;;;;21.23;7.00;;;;;;;18.25;100.00;100241.59;5186894;56;1143195;-77
2022/10/24 15:57:25;;;;;;;14.15;6.55;;;;;;;18.18;100.00;100236.63;5225530;56;1141220;-77
2022/10/24 16:02:31;;;;;;;18.27;6.62;;;;;;;18.13;100.00;100237.14;5166513;56;1141019;-77
2022/10/24 16:07:37;;;;;;;19.70;10.65;;;;;;;18.08;100.00;100234.64;5063217;58;1141054;-77
2022/10/24 16:12:44;;;;;;;19.77;15.25;;;;;;;18.04;100.00;100238.16;5063188;58;1143493;-77
2022/10/24 16:18:00;;;;;;;34.92;16.45;;;;;;;17.99;100.00;100244.56;5063139;58;1143088;-77
2022/10/24 16:29:02;;;;;;;49.65;21.12;;;;;;;17.92;100.00;100246.25;5046011;57;1139449;-76
2022/10/24 16:34:08;;;;;;;43.95;19.37;;;;;;;17.88;100.00;100240.91;5109559;57;1141104;-77
2022/10/24 16:39:15;;;;;;;51.35;23.90;;;;;;;17.83;100.00;100248.63;5128920;57;1145221;-78
2022/10/24 16:44:21;;;;;;;23.40;9.60;;;;;;;17.81;100.00;100254.66;5146346;57;1145167;-78
2022/10/24 16:49:27;;;;;;;35.07;20.37;;;;;;;17.74;100.00;100258.51;5116782;57;1143458;-77
2022/10/24 16:54:33;;;;;;;33.63;16.60;;;;;;;17.70;100.00;100267.91;5147700;56;1145019;-77
2022/10/24 16:59:39;;;;;;;48.50;23.12;;;;;;;17.68;100.00;100271.25;5088227;56;1145118;-78
2022/10/24 17:04:45;;;;;;;25.70;13.80;;;;;;;17.65;100.00;100269.41;5063809;58;1145222;-78
2022/10/24 17:09:52;;;;;;;20.20;8.43;;;;;;;17.64;100.00;100268.58;5147383;57;1145141;-78
2022/10/24 17:14:57;;;;;;;18.00;7.10;;;;;;;17.62;100.00;100263.03;5142626;57;1143147;-77
2022/10/24 17:20:04;;;;;;;20.40;9.40;;;;;;;17.62;100.00;100265.20;5147715;57;1143077;-78
2022/10/24 17:25:17;;;;;;;14.50;6.97;;;;;;;17.63;100.00;100260.19;5147481;57;1143182;-77
2022/10/24 17:30:28;;;;;;;20.63;7.77;;;;;;;17.61;100.00;100275.56;5147699;57;1143041;-77
2022/10/24 17:35:38;;;;;;;14.63;6.60;;;;;;;17.57;100.00;100282.25;5111710;57;1143182;-77
2022/10/24 17:40:47;;;;;;;13.40;6.90;;;;;;;17.52;100.00;100296.15;5147478;57;1143075;-77
2022/10/24 17:45:55;;;;;;;28.42;16.70;;;;;;;17.52;100.00;100296.15;5156418;56;1143140;-77
2022/10/24 17:51:02;;;;;;;44.37;20.83;;;;;;;17.50;100.00;100300.83;5064113;58;1145221;-78
2022/10/24 17:56:11;;;;;;;30.00;14.40;;;;;;;17.48;100.00;100298.81;5100532;57;1145504;-77
2022/10/24 18:01:19;;;;;;;28.80;9.80;;;;;;;17.46;100.00;100299.48;5180824;56;1145700;-78
2022/10/24 18:06:26;;;;;;;20.67;7.60;;;;;;;17.41;100.00;100300.52;5150694;56;1143409;-77
2022/10/24 18:48:11;;;;;;;11.57;6.77;;;;;;;17.11;100.00;100291.83;4955028;57;1138853;-78
2022/10/24 18:53:18;;;;;;;30.20;11.20;;;;;;;17.05;100.00;100300.50;4966247;58;1141053;-76
2022/10/24 18:58:24;;;;;;;19.93;5.77;;;;;;;17.00;100.00;100283.63;4921479;59;1143305;-78
2022/10/24 19:03:37;;;;;;;10.60;4.47;;;;;;;16.98;100.00;100295.47;5001854;58;1141006;-77
2022/10/24 19:08:48;;;;;;;9.10;5.43;;;;;;;16.97;100.00;100291.96;5109855;57;1140455;-77
2022/10/24 19:13:56;;;;;;;22.50;5.73;;;;;;;16.94;100.00;100294.98;5123979;57;21203;-77
2022/10/24 19:19:06;;;;;;;12.17;4.43;;;;;;;16.91;100.00;100301.99;5079737;57;1137046;-78
2022/10/24 19:24:13;;;;;;;12.00;6.73;;;;;;;16.87;100.00;100301.48;5100384;57;1141295;-79
2022/10/24 19:29:20;;;;;;;27.40;7.40;;;;;;;16.85;100.00;100298.63;5102073;58;1141070;-79
2022/10/24 19:34:29;;;;;;;12.20;4.20;;;;;;;16.84;100.00;100295.63;5100013;57;1141042;-79
2022/10/24 19:39:36;;;;;;;11.27;4.00;;;;;;;16.82;100.00;100298.45;5111568;57;1141088;-78
2022/10/24 19:44:46;;;;;;;8.83;3.30;;;;;;;16.79;100.00;100300.64;5100343;57;1139189;-78
2022/10/24 19:49:52;;;;;;;7.80;3.12;;;;;;;16.75;100.00;100313.48;5115325;57;1141019;-79
2022/10/24 19:54:59;;;;;;;7.73;3.40;;;;;;;16.73;100.00;100319.48;5094329;57;1141270;-79
2022/10/24 20:00:06;;;;;;;7.97;3.77;;;;;;;16.73;100.00;100316.81;5193634;57;1141586;-78
2022/10/24 20:05:14;;;;;;;11.03;3.30;;;;;;;16.72;100.00;100319.14;5161312;57;1141634;-78
2022/10/24 20:10:21;;;;;;;6.87;4.17;;;;;;;16.71;100.00;100313.47;5042174;58;1142977;-79
2022/10/24 20:15:27;;;;;;;12.87;4.87;;;;;;;16.72;100.00;100311.13;5091521;57;1140939;-79
2022/10/24 20:20:34;;;;;;;12.97;5.33;;;;;;;16.72;100.00;100314.30;5122664;57;1143157;-79
2022/10/24 20:25:40;;;;;;;28.47;9.33;;;;;;;16.68;100.00;100320.95;5061182;57;1143040;-79
2022/10/24 20:30:47;;;;;;;31.93;9.25;;;;;;;16.69;100.00;100322.14;5038977;57;1143333;-78
2022/10/24 20:35:53;;;;;;;17.33;7.93;;;;;;;16.67;100.00;100331.30;5041096;58;1143321;-79
2022/10/24 20:41:03;;;;;;;13.37;4.93;;;;;;;16.59;100.00;100329.43;4989669;59;1143115;-77
2022/10/24 20:46:09;;;;;;;21.70;7.63;;;;;;;16.58;100.00;100328.25;4960786;59;1143333;-78
2022/10/24 20:51:18;;;;;;;10.60;5.47;;;;;;;16.54;100.00;100326.40;5001391;58;1143174;-78
2022/10/24 20:56:25;;;;;;;17.23;7.07;;;;;;;16.48;100.00;100328.41;5048618;57;1143323;-79
2022/10/24 21:01:32;;;;;;;11.77;4.30;;;;;;;16.46;100.00;100341.06;5097673;57;1143113;-77
2022/10/24 21:06:38;;;;;;;7.83;3.63;;;;;;;16.42;100.00;100336.55;5142652;56;1143250;-78
2022/10/24 21:11:44;;;;;;;13.27;4.67;;;;;;;16.38;100.00;100344.53;5069925;58;1140927;-79
2022/10/24 21:16:49;;;;;;;10.10;4.23;;;;;;;16.38;100.00;100336.52;5095380;57;1143084;-79
2022/10/24 21:21:55;;;;;;;10.50;4.90;;;;;;;16.28;100.00;100342.49;5179632;57;1143651;-77
2022/10/24 21:27:02;;;;;;;14.57;5.43;;;;;;;16.28;100.00;100342.49;5179680;57;1143085;-77
2022/10/24 21:32:07;;;;;;;10.30;5.47;;;;;;;16.29;100.00;100344.66;5179573;57;1143152;-79
2022/10/24 21:37:13;;;;;;;11.53;5.57;;;;;;;16.24;100.00;100345.13;5123117;57;1143108;-77
2022/10/24 21:42:19;;;;;;;9.60;4.60;;;;;;;16.18;100.00;100347.96;5091714;57;1143159;-78
2022/10/24 21:47:25;;;;;;;6.77;4.53;;;;;;;16.17;100.00;100358.30;5095099;58;1141077;-77
2022/10/24 21:52:31;;;;;;;11.35;4.92;;;;;;;16.12;100.00;100361.92;5095152;57;1140983;-78
2022/10/24 21:57:37;;;;;;;10.03;4.60;;;;;;;16.07;100.00;100360.22;5094962;58;1143130;-79
2022/10/24 22:02:42;;;;;;;8.73;4.97;;;;;;;16.04;100.00;100363.19;5167419;57;1143291;-78
2022/10/24 22:07:50;;;;;;;10.47;5.00;;;;;;;15.99;100.00;100367.35;5063919;58;1141375;-77
2022/10/24 22:12:56;;;;;;;14.83;5.13;;;;;;;15.96;100.00;100364.99;5046511;58;1143440;-77
2022/10/24 22:18:02;;;;;;;10.47;4.80;;;;;;;15.92;100.00;100368.95;5017786;58;1143402;-77
2022/10/24 22:23:08;;;;;;;16.50;5.17;;;;;;;15.88;100.00;100375.13;5046303;58;1143132;-77
2022/10/24 22:28:14;;;;;;;13.63;4.70;;;;;;;15.83;100.00;100382.25;5017540;57;1143166;-79
2022/10/24 22:33:38;;;;;;;17.03;5.20;;;;;;;15.79;100.00;100386.22;5045986;58;1143264;-76
2022/10/24 22:38:44;;;;;;;13.27;4.93;;;;;;;15.75;100.00;100386.17;4967747;58;1143609;-78
2022/10/24 22:43:50;;;;;;;10.00;4.80;;;;;;;15.71;100.00;100384.00;5039906;58;1141012;-79
2022/10/24 22:49:01;;;;;;;10.87;4.60;;;;;;;15.71;100.00;100386.66;5039891;58;1141287;-77
2022/10/24 22:54:09;;;;;;;12.83;6.27;;;;;;;15.68;100.00;100382.48;4977984;58;1141012;-76
2022/10/24 22:59:15;;;;;;;7.53;4.70;;;;;;;15.63;100.00;100394.58;4969018;59;1141401;-77
2022/10/24 23:04:32;;;;;;;8.80;4.87;;;;;;;15.57;100.00;100398.72;5046493;58;1138926;-79
2022/10/24 23:09:38;;;;;;;8.97;4.97;;;;;;;15.65;100.00;100393.44;5017482;59;1139283;-78
2022/10/24 23:14:45;;;;;;;15.60;5.50;;;;;;;15.67;100.00;100390.63;5046356;58;1138988;-76
2022/10/24 23:19:51;;;;;;;10.07;4.83;;;;;;;15.60;100.00;100385.06;4984102;59;1141055;-77
2022/10/24 23:25:00;;;;;;;10.68;4.78;;;;;;;15.58;100.00;100400.40;5046188;58;1141178;-79
2022/10/24 23:30:17;;;;;;;8.20;4.47;;;;;;;15.53;100.00;100395.14;5070591;58;1141274;-77
2022/10/24 23:35:23;;;;;;;7.90;4.13;;;;;;;15.45;100.00;100398.06;5031121;58;1139104;-79
2022/10/24 23:40:37;;;;;;;8.23;4.37;;;;;;;15.39;100.00;100397.36;5076847;58;1136934;-78